Time;durP1;ratioP1;P1;durP2;ratioP2;P2;SDS_P1;SDS_P2;PMS_P1;PMS_P2;Temp;Humidity;BMP_temperature;BMP_pressure;BME280_temperature;BME280_humidity;BME280_pressure;Samples;Min_cycle;Max_cycle;Signal;HPM_P1;HPM_P2
2022/08/02 00:01:30;;;;;;;6.37;2.10;;;12.30;82.40;;;;;;5036244;28;20183;-88
2022/08/02 00:03:56;;;;;;;6.43;2.17;;;12.40;81.90;;;;;;5036124;28;20180;-88
2022/08/02 00:06:22;;;;;;;6.70;2.23;;;12.30;82.00;;;;;;5053960;28;20233;-88
2022/08/02 00:08:47;;;;;;;12.83;2.70;;;12.30;81.60;;;;;;5036127;28;20172;-87
2022/08/02 00:11:13;;;;;;;9.00;2.93;;;12.40;81.30;;;;;;5036319;28;20180;-88
2022/08/02 00:13:38;;;;;;;11.67;2.60;;;12.30;83.30;;;;;;5036090;28;20573;-88
2022/08/02 00:16:04;;;;;;;10.50;2.40;;;12.30;83.70;;;;;;5036345;28;20199;-87
2022/08/02 00:18:30;;;;;;;6.73;2.27;;;12.20;83.50;;;;;;5036073;28;20180;-88
2022/08/02 00:20:55;;;;;;;8.77;2.10;;;12.20;83.20;;;;;;5036073;28;20188;-88
2022/08/02 00:23:21;;;;;;;9.33;2.57;;;12.20;82.90;;;;;;5036495;28;20646;-88
2022/08/02 00:25:46;;;;;;;8.47;2.33;;;12.20;82.60;;;;;;5036319;28;20210;-85
2022/08/02 00:28:12;;;;;;;7.47;2.57;;;12.20;82.20;;;;;;5035770;28;20176;-86
2022/08/02 00:30:38;;;;;;;5.27;2.47;;;12.20;82.00;;;;;;5035623;28;20217;-86
2022/08/02 00:33:04;;;;;;;6.00;2.13;;;12.20;81.80;;;;;;5035577;28;20171;-86
2022/08/02 00:35:30;;;;;;;6.80;2.70;;;12.10;81.80;;;;;;5035431;28;20698;-86
2022/08/02 00:37:56;;;;;;;7.23;2.47;;;12.00;81.70;;;;;;5053331;28;20202;-86
2022/08/02 00:40:23;;;;;;;5.27;2.03;;;12.00;82.80;;;;;;5035400;28;20180;-86
2022/08/02 00:43:08;;;;;;;8.87;3.37;;;12.00;83.00;;;;;;5035483;28;20184;-86
2022/08/02 00:45:35;;;;;;;7.70;2.93;;;12.00;83.30;;;;;;5034886;28;20203;-86
2022/08/02 00:48:02;;;;;;;9.87;2.37;;;11.80;84.70;;;;;;5036536;28;20179;-86
2022/08/02 00:50:28;;;;;;;12.37;2.60;;;11.80;85.30;;;;;;5036070;28;20183;-86
2022/08/02 00:52:54;;;;;;;4.67;2.30;;;11.80;85.30;;;;;;5035391;28;20176;-86
2022/08/02 00:55:20;;;;;;;6.10;2.10;;;11.80;85.20;;;;;;5053070;28;20543;-86
2022/08/02 00:57:46;;;;;;;5.33;2.10;;;11.80;85.10;;;;;;5053104;28;20180;-86
2022/08/02 01:00:12;;;;;;;8.93;2.27;;;11.80;84.80;;;;;;5035263;28;20176;-86
2022/08/02 01:02:37;;;;;;;10.60;2.77;;;11.80;84.30;;;;;;5035231;28;20268;-86
2022/08/02 01:05:03;;;;;;;6.00;2.10;;;11.80;84.00;;;;;;5035051;28;20207;-86
2022/08/02 01:07:29;;;;;;;9.63;3.03;;;11.80;84.20;;;;;;5035217;28;20679;-86
2022/08/02 01:09:54;;;;;;;9.07;3.33;;;11.70;84.70;;;;;;5052874;28;20258;-86
2022/08/02 01:12:20;;;;;;;5.47;2.47;;;11.60;85.70;;;;;;5052954;28;20247;-86
2022/08/02 01:14:49;;;;;;;7.10;2.30;;;11.60;86.30;;;;;;5034983;28;20196;-86
2022/08/02 01:17:36;;;;;;;4.60;2.03;;;11.60;86.00;;;;;;5035006;28;20176;-87
2022/08/02 01:20:14;;;;;;;5.57;1.77;;;11.50;85.50;;;;;;5035492;28;20179;-86
2022/08/02 01:22:51;;;;;;;5.00;2.57;;;11.40;85.10;;;;;;5035031;28;20263;-86
2022/08/02 01:25:35;;;;;;;4.13;2.40;;;11.40;84.90;;;;;;5052992;28;20222;-86
2022/08/02 01:28:32;;;;;;;4.57;2.50;;;11.50;84.70;;;;;;5034977;28;20172;-86
2022/08/02 01:31:09;;;;;;;9.50;3.27;;;11.50;84.30;;;;;;5035013;28;20215;-86
2022/08/02 01:33:46;;;;;;;9.20;3.20;;;11.50;85.00;;;;;;5034747;28;20168;-86
2022/08/02 01:36:15;;;;;;;10.03;3.10;;;11.40;86.20;;;;;;5034805;28;20204;-86
2022/08/02 01:38:47;;;;;;;8.33;3.07;;;11.30;86.70;;;;;;5034828;28;20206;-86
2022/08/02 01:41:18;;;;;;;8.97;3.23;;;11.30;86.90;;;;;;5034930;28;20184;-86
2022/08/02 01:43:46;;;;;;;8.17;2.30;;;11.30;87.00;;;;;;5052691;28;20161;-86
2022/08/02 01:46:14;;;;;;;8.27;3.10;;;11.20;86.50;;;;;;5034733;28;20234;-85
2022/08/02 01:48:41;;;;;;;10.70;4.07;;;11.20;86.50;;;;;;5034922;28;20176;-85
2022/08/02 01:51:09;;;;;;;8.73;3.60;;;11.20;87.20;;;;;;5052579;28;20172;-86
2022/08/02 01:53:37;;;;;;;7.10;2.80;;;11.10;87.40;;;;;;5034815;28;20177;-86
2022/08/02 01:56:06;;;;;;;6.07;2.67;;;11.20;87.30;;;;;;5052730;28;20287;-86
2022/08/02 01:58:35;;;;;;;9.23;3.57;;;11.20;86.90;;;;;;5056314;28;20176;-86
2022/08/02 02:01:01;;;;;;;8.57;3.30;;;11.10;86.90;;;;;;5056416;28;20184;-86
2022/08/02 02:03:28;;;;;;;5.47;2.97;;;11.00;87.00;;;;;;5038429;28;20266;-86
2022/08/02 02:05:57;;;;;;;6.50;2.90;;;11.10;87.30;;;;;;5056093;28;20203;-85
2022/08/02 02:08:35;;;;;;;5.73;2.87;;;11.10;87.00;;;;;;5038238;28;20191;-86
2022/08/02 02:11:02;;;;;;;4.43;3.30;;;11.10;87.40;;;;;;5038252;28;20176;-86
2022/08/02 02:13:29;;;;;;;7.33;3.40;;;11.00;87.80;;;;;;5056377;28;20168;-86
2022/08/02 02:15:56;;;;;;;7.63;3.57;;;11.00;88.10;;;;;;5056249;28;20283;-86
2022/08/02 02:18:25;;;;;;;11.00;2.80;;;11.00;88.40;;;;;;5055898;28;20176;-86
2022/08/02 02:20:52;;;;;;;6.93;3.07;;;11.00;88.10;;;;;;5055904;28;20176;-86
2022/08/02 02:23:18;;;;;;;7.13;2.10;;;10.90;87.60;;;;;;5055857;28;20176;-86
2022/08/02 02:25:44;;;;;;;6.53;2.30;;;10.70;86.60;;;;;;5055762;28;20200;-86
2022/08/02 02:28:27;;;;;;;5.73;2.10;;;10.70;86.70;;;;;;5037949;28;20180;-86
2022/08/02 02:31:03;;;;;;;6.83;2.20;;;10.80;86.50;;;;;;5037854;28;20699;-86
2022/08/02 02:33:32;;;;;;;6.87;2.10;;;10.80;86.10;;;;;;5037943;28;20164;-86
2022/08/02 02:35:59;;;;;;;6.50;2.23;;;10.70;85.60;;;;;;5037790;28;20307;-86
2022/08/02 02:38:29;;;;;;;4.50;2.67;;;10.70;85.20;;;;;;5037753;28;20180;-86
2022/08/02 02:40:57;;;;;;;5.93;2.40;;;10.50;84.80;;;;;;5037668;28;20191;-86
2022/08/02 02:43:27;;;;;;;5.77;2.67;;;10.40;85.20;;;;;;5037650;28;20668;-86
2022/08/02 02:45:53;;;;;;;3.50;2.20;;;10.40;85.30;;;;;;5037574;28;20299;-86
2022/08/02 02:48:19;;;;;;;4.00;2.37;;;10.50;85.10;;;;;;5055414;28;20203;-86
2022/08/02 02:50:46;;;;;;;3.20;2.17;;;10.50;85.00;;;;;;5037548;28;20213;-85
2022/08/02 02:53:15;;;;;;;5.27;2.17;;;10.40;84.50;;;;;;5037514;28;20180;-86
2022/08/02 02:55:42;;;;;;;4.03;3.17;;;10.40;84.30;;;;;;5037298;28;20199;-86
2022/08/02 02:58:08;;;;;;;5.47;2.53;;;10.40;84.40;;;;;;5037345;28;20183;-85
2022/08/02 03:03:19;;;;;;;8.47;3.17;;;10.40;84.20;;;;;;5055773;28;20167;-86
2022/08/02 03:05:44;;;;;;;6.33;2.40;;;10.40;84.20;;;;;;5037099;28;20215;-86
2022/08/02 03:08:10;;;;;;;3.87;2.30;;;10.30;84.20;;;;;;5036800;28;20180;-86
2022/08/02 03:10:36;;;;;;;5.63;2.80;;;10.20;84.20;;;;;;5055027;28;20173;-86
2022/08/02 03:13:02;;;;;;;11.20;2.67;;;10.10;84.60;;;;;;5037451;28;20180;-86
2022/08/02 03:15:30;;;;;;;3.60;2.20;;;10.10;85.00;;;;;;5054842;28;20294;-86
2022/08/02 03:17:55;;;;;;;3.70;2.70;;;10.10;85.00;;;;;;5036910;28;20202;-86
2022/08/02 03:20:24;;;;;;;5.97;2.80;;;10.10;85.00;;;;;;5054768;28;20176;-86
2022/08/02 03:22:50;;;;;;;8.57;2.80;;;10.10;85.40;;;;;;5036935;28;20179;-86
2022/08/02 03:25:17;;;;;;;7.47;2.90;;;10.10;85.60;;;;;;5036697;28;20747;-86
2022/08/02 03:27:43;;;;;;;5.20;2.30;;;10.10;85.50;;;;;;5054563;28;20630;-86
2022/08/02 03:30:11;;;;;;;3.33;2.40;;;10.20;85.40;;;;;;5036771;28;20176;-86
2022/08/02 03:32:38;;;;;;;5.10;2.80;;;10.20;85.30;;;;;;5036687;28;20641;-86
2022/08/02 03:35:05;;;;;;;7.90;3.40;;;10.30;85.20;;;;;;5036778;28;20223;-85
2022/08/02 03:37:32;;;;;;;5.63;2.90;;;10.30;85.40;;;;;;5036645;28;20638;-86
2022/08/02 03:39:59;;;;;;;8.63;4.13;;;10.40;85.80;;;;;;5036570;28;20234;-86
2022/08/02 03:42:26;;;;;;;12.17;5.43;;;10.50;86.10;;;;;;5036473;28;20179;-85
2022/08/02 03:44:53;;;;;;;9.17;4.00;;;10.70;87.30;;;;;;5054390;28;20206;-86
2022/08/02 03:47:20;;;;;;;7.53;4.60;;;10.70;87.50;;;;;;5036471;28;20642;-86
2022/08/02 03:49:46;;;;;;;5.87;3.47;;;10.70;87.50;;;;;;5054204;28;20653;-86
2022/08/02 03:52:13;;;;;;;8.63;5.23;;;10.70;87.50;;;;;;5036316;28;20187;-86
2022/08/02 03:54:38;;;;;;;10.27;4.63;;;10.80;87.60;;;;;;5036196;28;20273;-85
2022/08/02 03:57:06;;;;;;;8.37;5.27;;;10.80;87.80;;;;;;5036323;28;20211;-86
2022/08/02 03:59:43;;;;;;;12.20;5.87;;;10.80;88.20;;;;;;5036264;28;20179;-86
2022/08/02 04:02:09;;;;;;;8.53;5.47;;;10.80;88.30;;;;;;5054031;28;20226;-86
2022/08/02 04:04:35;;;;;;;12.33;5.53;;;10.80;88.50;;;;;;5036023;28;20246;-86
2022/08/02 04:07:01;;;;;;;8.47;4.40;;;10.70;88.60;;;;;;5053972;28;20176;-86
2022/08/02 04:09:26;;;;;;;9.80;5.10;;;10.70;88.70;;;;;;5035969;28;20180;-86
2022/08/02 04:11:52;;;;;;;7.27;4.20;;;10.70;88.70;;;;;;5054079;28;20176;-86
2022/08/02 04:14:17;;;;;;;11.20;4.00;;;10.70;88.60;;;;;;5035897;28;20587;-86
2022/08/02 04:17:03;;;;;;;4.63;3.40;;;10.70;88.50;;;;;;5053941;28;20703;-87
2022/08/02 04:19:37;;;;;;;6.67;3.70;;;10.70;88.20;;;;;;5053025;28;20622;-86
2022/08/02 04:22:05;;;;;;;12.20;3.77;;;10.70;88.00;;;;;;5053723;28;20243;-86
2022/08/02 04:24:43;;;;;;;5.67;3.90;;;10.60;87.80;;;;;;5035642;28;20258;-85
2022/08/02 04:27:09;;;;;;;8.20;4.03;;;10.60;87.70;;;;;;5035792;28;20170;-86
2022/08/02 04:29:36;;;;;;;9.20;4.23;;;10.60;87.70;;;;;;5053472;28;20172;-86
2022/08/02 04:32:04;;;;;;;5.47;4.20;;;10.60;87.60;;;;;;5035650;28;20180;-86
2022/08/02 04:34:30;;;;;;;6.30;4.10;;;10.60;87.40;;;;;;5035337;28;20208;-86
2022/08/02 04:36:57;;;;;;;8.90;3.53;;;10.60;87.30;;;;;;5053441;28;20178;-86
2022/08/02 04:39:23;;;;;;;8.47;3.63;;;10.50;87.20;;;;;;5035582;28;20176;-86
2022/08/02 04:41:48;;;;;;;10.60;3.57;;;10.60;87.30;;;;;;5035570;28;20246;-86
2022/08/02 04:44:14;;;;;;;6.97;4.43;;;10.60;87.30;;;;;;5035379;28;20271;-86
2022/08/02 04:46:41;;;;;;;6.13;3.60;;;10.50;87.30;;;;;;5035473;28;20576;-86
2022/08/02 04:49:07;;;;;;;13.93;5.13;;;10.50;87.50;;;;;;5035437;28;20210;-86
2022/08/02 04:51:36;;;;;;;12.13;3.93;;;10.30;87.50;;;;;;5053296;28;20570;-86
2022/08/02 04:54:03;;;;;;;8.67;4.70;;;10.40;87.80;;;;;;5053121;28;20174;-85
2022/08/02 04:56:28;;;;;;;11.10;4.87;;;10.40;88.30;;;;;;5053010;28;20560;-85
2022/08/02 04:58:54;;;;;;;6.97;4.30;;;10.60;88.60;;;;;;5035408;28;20176;-86
2022/08/02 05:01:20;;;;;;;11.80;4.77;;;10.70;88.80;;;;;;5053062;28;20176;-86
2022/08/02 05:03:45;;;;;;;9.70;5.13;;;10.90;88.90;;;;;;5035351;28;20214;-86
2022/08/02 05:06:11;;;;;;;8.70;5.20;;;10.90;89.20;;;;;;5035021;28;20208;-86
2022/08/02 05:08:36;;;;;;;11.63;5.73;;;11.00;90.00;;;;;;5053344;28;20175;-86
2022/08/02 05:11:02;;;;;;;9.37;5.87;;;11.10;90.30;;;;;;5035140;28;20693;-85
2022/08/02 05:13:28;;;;;;;10.57;5.67;;;11.10;90.50;;;;;;5035107;28;20172;-86
2022/08/02 05:15:53;;;;;;;9.60;5.60;;;11.10;90.70;;;;;;5035039;28;20203;-86
2022/08/02 05:18:19;;;;;;;12.07;6.60;;;11.20;91.00;;;;;;5052888;28;20172;-86
2022/08/02 05:20:44;;;;;;;13.70;6.93;;;11.20;91.30;;;;;;5035109;28;20550;-86
2022/08/02 05:23:10;;;;;;;17.57;7.40;;;11.20;91.60;;;;;;5035067;28;20199;-85
2022/08/02 05:25:35;;;;;;;19.10;6.93;;;11.20;91.80;;;;;;5034831;28;20238;-85
2022/08/02 05:28:01;;;;;;;11.33;6.87;;;11.30;91.90;;;;;;5035047;28;20179;-86
2022/08/02 05:30:26;;;;;;;11.73;7.23;;;11.30;92.00;;;;;;5053663;28;20176;-86
2022/08/02 05:32:52;;;;;;;14.10;7.20;;;11.30;92.10;;;;;;5039071;28;20271;-86
2022/08/02 05:35:22;;;;;;;10.67;6.30;;;11.40;92.20;;;;;;5038767;28;20207;-86
2022/08/02 05:37:48;;;;;;;14.20;7.57;;;11.40;92.30;;;;;;5039009;28;20179;-86
2022/08/02 05:40:14;;;;;;;15.87;6.80;;;11.50;92.30;;;;;;5038886;28;20179;-86
2022/08/02 05:42:41;;;;;;;14.13;6.77;;;11.60;92.30;;;;;;5039213;28;20587;-85
2022/08/02 05:45:07;;;;;;;13.60;6.57;;;11.70;92.30;;;;;;5038664;28;20257;-86
2022/08/02 05:47:33;;;;;;;17.53;6.80;;;11.80;92.30;;;;;;5056837;28;20512;-86
2022/08/02 05:49:59;;;;;;;15.33;6.70;;;11.90;92.20;;;;;;5038676;28;20183;-86
2022/08/02 05:52:28;;;;;;;14.50;6.00;;;12.00;92.30;;;;;;5038683;28;20191;-86
2022/08/02 05:55:15;;;;;;;15.13;6.30;;;12.20;92.40;;;;;;5038427;28;20207;-86
2022/08/02 05:58:06;;;;;;;11.23;6.07;;;12.20;92.20;;;;;;5056710;28;20161;-86
2022/08/02 06:00:34;;;;;;;17.93;6.37;;;12.30;92.10;;;;;;5038481;28;20172;-86
2022/08/02 06:03:15;;;;;;;20.13;6.30;;;12.40;92.00;;;;;;5038471;28;20230;-86
2022/08/02 06:06:05;;;;;;;15.77;5.57;;;12.40;91.90;;;;;;5056120;28;20192;-86
2022/08/02 06:08:37;;;;;;;11.40;5.00;;;12.60;91.90;;;;;;5028334;28;20188;-86
2022/08/02 06:11:05;;;;;;;15.60;6.20;;;12.60;91.50;;;;;;5056162;28;20243;-86
2022/08/02 06:13:31;;;;;;;24.17;5.83;;;12.70;91.20;;;;;;5056077;28;20520;-86
2022/08/02 06:15:58;;;;;;;19.17;6.17;;;12.80;91.10;;;;;;5055994;28;20202;-86
2022/08/02 06:18:26;;;;;;;13.23;5.33;;;12.80;90.90;;;;;;5055986;28;20542;-86
2022/08/02 06:20:54;;;;;;;13.70;5.37;;;13.00;90.80;;;;;;5038053;28;20180;-86
2022/08/02 06:23:22;;;;;;;19.50;5.37;;;13.20;90.80;;;;;;5038328;28;20183;-86
2022/08/02 06:25:49;;;;;;;18.37;5.50;;;13.20;90.60;;;;;;5055676;28;20206;-86
2022/08/02 06:28:17;;;;;;;15.00;4.67;;;13.30;90.50;;;;;;5055727;28;20226;-86
2022/08/02 06:30:43;;;;;;;19.63;5.30;;;13.40;90.40;;;;;;5038808;28;20176;-86
2022/08/02 06:33:09;;;;;;;13.17;4.50;;;13.40;89.70;;;;;;5055967;28;20180;-88
2022/08/02 06:35:59;;;;;;;20.47;4.67;;;13.60;89.30;;;;;;5056777;28;20299;-88
2022/08/02 06:38:31;;;;;;;11.53;4.23;;;13.70;88.60;;;;;;5039595;28;20176;-88
2022/08/02 06:41:08;;;;;;;12.67;4.17;;;13.70;88.30;;;;;;5039946;28;20188;-87
2022/08/02 06:43:44;;;;;;;12.53;3.30;;;13.80;88.00;;;;;;5037969;28;20222;-88
2022/08/02 06:46:10;;;;;;;7.00;2.93;;;13.90;87.60;;;;;;5038594;28;20211;-87
2022/08/02 06:48:36;;;;;;;13.60;3.50;;;14.00;87.00;;;;;;5037815;28;20190;-86
2022/08/02 06:51:02;;;;;;;13.90;3.50;;;14.00;86.90;;;;;;5037749;28;20180;-86
2022/08/02 06:53:28;;;;;;;12.37;3.60;;;14.10;86.60;;;;;;5037620;28;20180;-87
2022/08/02 06:55:54;;;;;;;12.77;3.33;;;14.20;86.40;;;;;;5055809;28;20195;-87
2022/08/02 06:58:19;;;;;;;19.83;3.87;;;14.20;85.90;;;;;;5037598;28;20266;-87
2022/08/02 07:00:46;;;;;;;18.13;3.10;;;14.40;86.00;;;;;;5037591;28;20183;-88
2022/08/02 07:03:11;;;;;;;10.47;2.60;;;14.40;84.90;;;;;;5055306;28;20180;-87
2022/08/02 07:05:37;;;;;;;14.07;3.10;;;14.40;84.40;;;;;;5037318;28;20211;-87
2022/08/02 07:08:03;;;;;;;8.10;2.30;;;14.40;83.70;;;;;;5055204;28;20176;-87
2022/08/02 07:10:29;;;;;;;14.83;3.23;;;14.60;83.30;;;;;;5037547;28;20650;-87
2022/08/02 07:12:55;;;;;;;11.50;2.73;;;14.70;83.90;;;;;;5037190;28;20180;-87
2022/08/02 07:15:21;;;;;;;17.03;3.77;;;14.80;82.50;;;;;;5037030;28;20203;-86
2022/08/02 07:17:46;;;;;;;11.40;2.93;;;14.80;83.30;;;;;;5037165;28;20554;-87
2022/08/02 07:20:13;;;;;;;9.30;2.70;;;14.90;82.60;;;;;;5037137;28;20561;-87
2022/08/02 07:22:39;;;;;;;8.50;2.47;;;15.00;82.00;;;;;;5037386;28;20179;-87
2022/08/02 07:25:06;;;;;;;10.23;3.17;;;15.20;81.20;;;;;;5036877;28;20199;-87
2022/08/02 07:27:32;;;;;;;6.23;1.90;;;15.20;80.50;;;;;;5037026;28;20172;-87
2022/08/02 07:29:58;;;;;;;10.87;2.50;;;15.20;79.70;;;;;;5054986;28;20687;-87
2022/08/02 07:32:28;;;;;;;13.83;2.43;;;15.20;79.20;;;;;;5036824;28;20176;-86
2022/08/02 07:34:55;;;;;;;8.27;2.27;;;15.30;78.90;;;;;;5036580;28;20211;-87
2022/08/02 07:37:23;;;;;;;13.97;3.63;;;15.40;78.60;;;;;;5036752;28;20179;-86
2022/08/02 07:39:48;;;;;;;6.77;3.00;;;15.40;79.90;;;;;;5054518;28;20168;-87
2022/08/02 07:42:14;;;;;;;9.93;2.33;;;15.60;80.30;;;;;;5036618;28;20182;-86
2022/08/02 07:44:39;;;;;;;8.60;2.73;;;15.70;79.80;;;;;;5054358;28;20207;-86
2022/08/02 07:47:05;;;;;;;9.98;2.85;;;15.80;79.70;;;;;;5054479;28;20642;-86
2022/08/02 07:49:31;;;;;;;16.83;3.13;;;15.80;79.30;;;;;;5036403;28;20183;-87
2022/08/02 07:51:56;;;;;;;15.30;4.45;;;15.90;78.30;;;;;;5036470;28;20179;-87
2022/08/02 07:54:23;;;;;;;11.77;2.97;;;15.80;77.10;;;;;;5053094;28;20196;-86
2022/08/02 07:56:49;;;;;;;11.15;3.33;;;16.00;77.80;;;;;;5036456;28;20660;-86
2022/08/02 07:59:14;;;;;;;10.48;3.53;;;16.00;76.90;;;;;;5036511;28;20250;-86
2022/08/02 08:01:40;;;;;;;10.65;2.55;;;16.00;77.20;;;;;;5036593;28;20186;-86
2022/08/02 08:04:06;;;;;;;14.70;3.35;;;16.20;78.30;;;;;;5054214;28;20259;-86
2022/08/02 08:06:32;;;;;;;8.20;2.35;;;16.20;77.20;;;;;;5054141;28;20283;-85
2022/08/02 08:08:58;;;;;;;14.00;3.53;;;16.30;77.00;;;;;;5054384;28;20218;-84
2022/08/02 08:11:24;;;;;;;15.73;4.00;;;16.40;76.90;;;;;;5036444;28;20199;-85
2022/08/02 08:13:49;;;;;;;14.13;3.08;;;16.50;76.80;;;;;;5053856;28;20207;-85
2022/08/02 08:16:15;;;;;;;12.73;3.28;;;16.70;75.70;;;;;;5035772;28;20218;-85
2022/08/02 08:18:41;;;;;;;9.65;2.80;;;16.70;76.60;;;;;;5035996;28;20179;-85
2022/08/02 08:21:06;;;;;;;8.18;2.75;;;16.80;76.60;;;;;;5053755;28;20257;-85
2022/08/02 08:23:32;;;;;;;12.73;3.17;;;17.00;76.20;;;;;;5053685;28;20198;-84
2022/08/02 08:25:57;;;;;;;10.18;2.67;;;17.00;74.70;;;;;;5035609;28;20204;-85
2022/08/02 08:28:23;;;;;;;9.50;2.42;;;16.90;73.30;;;;;;5035743;28;20172;-85
2022/08/02 08:30:49;;;;;;;11.75;3.20;;;17.00;74.30;;;;;;5053544;28;20219;-84
2022/08/02 08:33:14;;;;;;;11.15;2.63;;;17.00;72.70;;;;;;5036121;28;20199;-86
2022/08/02 08:35:40;;;;;;;14.15;3.30;;;17.10;73.90;;;;;;5054335;28;20211;-85
2022/08/02 08:38:06;;;;;;;13.55;3.40;;;17.30;73.00;;;;;;5037210;28;20270;-85
2022/08/02 08:40:31;;;;;;;9.05;2.33;;;17.50;73.70;;;;;;5036708;28;20551;-85
2022/08/02 08:42:57;;;;;;;10.23;2.70;;;17.40;72.00;;;;;;5053852;28;20164;-85
2022/08/02 08:45:23;;;;;;;9.93;3.05;;;17.60;72.70;;;;;;5035590;28;20227;-86
2022/08/02 08:48:00;;;;;;;10.98;2.72;;;17.80;72.20;;;;;;5035898;28;20172;-86
2022/08/02 08:50:25;;;;;;;15.45;3.28;;;17.80;71.70;;;;;;5035653;28;20282;-86
2022/08/02 08:52:54;;;;;;;9.30;2.22;;;17.90;72.30;;;;;;5035541;28;20208;-86
2022/08/02 08:55:23;;;;;;;5.57;2.13;;;17.90;69.20;;;;;;5053236;28;20192;-87
2022/08/02 08:57:50;;;;;;;15.93;3.42;;;18.00;69.60;;;;;;5035504;28;20180;-86
2022/08/02 09:00:16;;;;;;;10.07;2.40;;;18.10;69.10;;;;;;5035498;28;20176;-87
2022/08/02 09:02:42;;;;;;;11.27;3.00;;;18.20;68.70;;;;;;5035401;28;20229;-88
2022/08/02 09:05:14;;;;;;;7.85;2.03;;;18.30;69.40;;;;;;5034785;28;20227;-87
2022/08/02 09:07:41;;;;;;;12.45;2.25;;;18.60;69.30;;;;;;5035762;28;20169;-88
2022/08/02 09:10:36;;;;;;;7.63;1.85;;;18.60;66.90;;;;;;5053040;28;20527;-88
2022/08/02 09:13:06;;;;;;;9.88;2.40;;;18.70;66.00;;;;;;5053111;28;20172;-89
2022/08/02 09:15:32;;;;;;;11.32;2.70;;;18.80;67.10;;;;;;5035199;28;20249;-89
2022/08/02 09:17:57;;;;;;;10.85;2.60;;;18.80;66.30;;;;;;5035603;28;20264;-88
2022/08/02 09:20:23;;;;;;;9.90;2.50;;;18.90;66.70;;;;;;5035297;28;20642;-88
2022/08/02 09:23:10;;;;;;;11.30;2.83;;;19.00;65.00;;;;;;5053122;28;20176;-88
2022/08/02 09:25:36;;;;;;;6.60;2.65;;;19.00;64.10;;;;;;5034968;28;20195;-88
2022/08/02 09:28:04;;;;;;;8.68;2.42;;;19.30;66.00;;;;;;5036298;28;20179;-88
2022/08/02 09:30:30;;;;;;;7.32;2.00;;;19.30;63.80;;;;;;5035133;28;20176;-88
2022/08/02 09:32:55;;;;;;;7.03;2.05;;;19.20;61.20;;;;;;5034956;28;20186;-88
2022/08/02 09:35:35;;;;;;;7.13;2.50;;;19.20;62.50;;;;;;5053251;28;20203;-88
2022/08/02 09:38:12;;;;;;;7.00;2.00;;;19.30;61.50;;;;;;5035054;28;20187;-88
2022/08/02 09:40:40;;;;;;;8.50;2.53;;;19.40;61.10;;;;;;5035149;28;20187;-88
2022/08/02 09:43:06;;;;;;;5.45;2.00;;;19.60;61.00;;;;;;5052760;28;20176;-89
2022/08/02 09:45:33;;;;;;;4.68;2.05;;;19.90;62.50;;;;;;5052677;28;20200;-88
2022/08/02 09:48:09;;;;;;;11.00;2.70;;;19.80;60.90;;;;;;5052658;28;20179;-87
2022/08/02 09:50:40;;;;;;;6.97;2.08;;;19.80;59.80;;;;;;5034974;28;20168;-89
2022/08/02 09:53:11;;;;;;;6.90;1.63;;;20.00;60.70;;;;;;5034922;28;20179;-88
2022/08/02 09:55:37;;;;;;;7.13;2.00;;;20.20;58.40;;;;;;5034882;28;20210;-88
2022/08/02 09:58:19;;;;;;;11.18;2.40;;;20.20;57.30;;;;;;5035165;28;20602;-88
2022/08/02 10:00:56;;;;;;;8.68;2.17;;;20.20;58.10;;;;;;5052894;28;20250;-88
2022/08/02 10:03:22;;;;;;;5.65;1.88;;;20.60;57.20;;;;;;5034882;28;20604;-88
2022/08/02 10:05:53;;;;;;;6.22;1.58;;;20.60;56.00;;;;;;5034915;28;20200;-88
2022/08/02 10:08:20;;;;;;;5.68;1.83;;;21.00;56.70;;;;;;5034822;28;20247;-89
2022/08/02 10:10:46;;;;;;;5.00;1.35;;;20.70;56.00;;;;;;5052652;28;20577;-89
2022/08/02 10:13:11;;;;;;;4.78;1.60;;;20.80;51.60;;;;;;5034784;28;20208;-88
2022/08/02 10:15:38;;;;;;;9.48;2.80;;;20.60;53.70;;;;;;5034700;28;20647;-89
2022/08/02 10:18:05;;;;;;;5.18;1.88;;;20.90;53.30;;;;;;5036901;28;20184;-89
2022/08/02 10:20:39;;;;;;;4.90;1.60;;;20.90;52.90;;;;;;5038290;28;20180;-89
2022/08/02 10:23:07;;;;;;;6.40;1.77;;;21.10;55.40;;;;;;5038791;28;20183;-89
2022/08/02 10:25:36;;;;;;;9.93;2.17;;;21.00;53.20;;;;;;5038064;28;20204;-89
2022/08/02 10:28:02;;;;;;;7.22;1.70;;;21.00;55.20;;;;;;5055958;28;20168;-88
2022/08/02 10:30:29;;;;;;;5.93;1.55;;;21.10;56.30;;;;;;5055925;28;20179;-90
2022/08/02 10:32:58;;;;;;;7.47;2.05;;;21.60;54.40;;;;;;5038012;28;20175;-89
2022/08/02 10:35:25;;;;;;;6.82;1.90;;;21.20;55.60;;;;;;5038297;28;20265;-90
2022/08/02 10:37:53;;;;;;;6.50;1.80;;;21.70;56.60;;;;;;5055701;28;20172;-89
2022/08/02 10:40:22;;;;;;;4.78;1.67;;;22.00;54.00;;;;;;5038194;28;20176;-89
2022/08/02 10:42:50;;;;;;;7.88;1.88;;;21.70;52.70;;;;;;5055721;28;20175;-90
2022/08/02 10:45:18;;;;;;;4.75;1.48;;;21.70;52.30;;;;;;5037679;28;20294;-90
2022/08/02 10:47:59;;;;;;;4.50;1.55;;;21.90;51.60;;;;;;5037702;28;20256;-89
2022/08/02 10:50:46;;;;;;;5.93;1.33;;;21.70;50.40;;;;;;5038866;28;20164;-90
2022/08/02 10:53:22;;;;;;;9.13;1.73;;;21.80;49.70;;;;;;5055475;28;20174;-89
2022/08/02 10:55:48;;;;;;;4.95;1.77;;;21.80;51.60;;;;;;5037556;28;20287;-89
2022/08/02 10:58:22;;;;;;;7.03;1.50;;;22.30;50.40;;;;;;5037525;28;20203;-90
2022/08/02 11:00:49;;;;;;;5.90;1.60;;;22.10;49.00;;;;;;5037513;28;20175;-90
2022/08/02 11:03:26;;;;;;;4.40;1.63;;;22.00;51.30;;;;;;5055300;28;20642;-89
2022/08/02 11:06:03;;;;;;;5.80;1.52;;;22.20;49.30;;;;;;5037409;28;20696;-90
2022/08/02 11:08:29;;;;;;;4.10;1.42;;;22.70;50.70;;;;;;5037306;28;20182;-90
2022/08/02 11:11:16;;;;;;;4.25;1.35;;;22.60;51.70;;;;;;5055112;28;20164;-90
2022/08/02 11:14:02;;;;;;;4.07;1.40;;;22.60;49.70;;;;;;5037364;28;20172;-89
2022/08/02 11:16:54;;;;;;;3.67;1.45;;;22.70;49.50;;;;;;5055015;28;20182;-89
2022/08/02 11:19:19;;;;;;;6.03;1.50;;;22.70;48.80;;;;;;5037566;28;20585;-89
2022/08/02 11:22:02;;;;;;;5.18;1.63;;;22.90;48.80;;;;;;5037256;28;20183;-89
2022/08/02 11:24:31;;;;;;;6.70;1.65;;;22.90;49.00;;;;;;5054945;28;20206;-89
2022/08/02 11:27:01;;;;;;;7.63;1.80;;;22.90;47.90;;;;;;5033797;28;20254;-90
2022/08/02 11:29:34;;;;;;;7.30;2.00;;;22.90;49.60;;;;;;5054881;28;20192;-89
2022/08/02 11:31:59;;;;;;;5.22;1.70;;;23.00;50.80;;;;;;5037044;28;20321;-89
2022/08/02 11:34:26;;;;;;;6.07;1.88;;;23.20;49.20;;;;;;5036953;28;20216;-90
2022/08/02 11:36:52;;;;;;;4.65;1.40;;;23.10;50.30;;;;;;5037181;28;20172;-89
2022/08/02 11:39:22;;;;;;;5.07;1.55;;;23.20;48.20;;;;;;5036790;28;20172;-89
2022/08/02 11:41:52;;;;;;;5.43;1.90;;;23.20;49.10;;;;;;5054505;28;20574;-89
2022/08/02 11:44:18;;;;;;;7.00;1.83;;;23.00;49.30;;;;;;5037284;28;20617;-89
2022/08/02 11:46:52;;;;;;;5.03;2.00;;;23.00;50.60;;;;;;5036472;28;20204;-89
2022/08/02 11:49:18;;;;;;;4.75;1.42;;;23.40;51.00;;;;;;5054441;28;20152;-89
2022/08/02 11:51:52;;;;;;;4.10;1.63;;;23.40;46.90;;;;;;5036597;28;20692;-89
2022/08/02 11:54:26;;;;;;;6.45;1.65;;;23.20;49.40;;;;;;5054270;28;20195;-89
2022/08/02 11:56:53;;;;;;;4.00;1.67;;;23.40;49.70;;;;;;5036425;28;20179;-89
2022/08/02 11:59:18;;;;;;;2.88;1.38;;;23.20;48.50;;;;;;5036421;28;20203;-89
2022/08/02 12:01:44;;;;;;;8.25;1.95;;;23.30;47.00;;;;;;5036292;28;20649;-90
2022/08/02 12:04:10;;;;;;;4.60;1.65;;;23.50;48.10;;;;;;5036226;28;20179;-90
2022/08/02 12:06:35;;;;;;;3.35;1.63;;;23.40;48.50;;;;;;5035977;28;20199;-90
2022/08/02 12:09:05;;;;;;;4.88;1.63;;;23.50;48.50;;;;;;5053968;28;20172;-89
2022/08/02 12:11:31;;;;;;;7.55;1.50;;;23.70;47.60;;;;;;5036164;28;20666;-89
2022/08/02 12:13:57;;;;;;;5.70;1.83;;;23.70;47.40;;;;;;5053938;28;20676;-89
2022/08/02 12:19:18;;;;;;;7.65;1.70;;;23.90;47.60;;;;;;5054502;28;20167;-89
2022/08/02 12:21:43;;;;;;;2.63;1.40;;;24.10;47.30;;;;;;5036091;28;20175;-90
2022/08/02 12:24:10;;;;;;;5.50;1.33;;;24.10;47.90;;;;;;5035878;28;20184;-89
2022/08/02 12:26:44;;;;;;;3.28;1.50;;;24.10;46.30;;;;;;5053637;28;20728;-89
2022/08/02 12:29:10;;;;;;;5.28;1.85;;;24.10;47.10;;;;;;5054146;28;20172;-89
2022/08/02 12:31:44;;;;;;;4.72;1.70;;;24.20;47.30;;;;;;5053727;28;20218;-89
2022/08/02 12:34:17;;;;;;;3.95;1.83;;;24.40;46.80;;;;;;5053608;28;20654;-90
2022/08/02 12:37:03;;;;;;;5.10;1.50;;;24.60;47.60;;;;;;5035734;28;20545;-89
2022/08/02 12:39:44;;;;;;;9.23;1.77;;;24.40;44.90;;;;;;5053371;28;20688;-89
2022/08/02 12:42:12;;;;;;;4.72;1.42;;;24.30;44.40;;;;;;5035836;28;20534;-88
2022/08/02 12:44:52;;;;;;;3.83;1.30;;;24.20;46.30;;;;;;5053267;28;20677;-89
2022/08/02 12:47:20;;;;;;;7.03;1.52;;;24.40;46.40;;;;;;5035540;28;20182;-89
2022/08/02 12:49:46;;;;;;;4.18;1.70;;;24.20;47.20;;;;;;5035494;28;20593;-89
2022/08/02 12:52:23;;;;;;;4.18;1.33;;;24.30;46.20;;;;;;5035751;28;20171;-89
2022/08/02 12:54:49;;;;;;;6.32;1.77;;;24.40;45.70;;;;;;5053198;28;20187;-89
2022/08/02 12:57:18;;;;;;;5.38;1.27;;;24.30;46.60;;;;;;5053340;28;20247;-89